FCO weather

Leonardo da Vinci–Fiumicino Airport
Rome, Lazio, Italy

Public forecast

Using degrees Celsius for public forecast. Weather courtesy of forecast.io.

METAR (pilot weather report)

Retrieved 2018/06/19 08:20 UTC (0 seconds ago):

LIRF 190820Z 04010KT 360V080 CAVOK 29/12 Q1016 NOSIG

TAF (pilot weather forecast)

Retrieved 2018/06/19 06:21 UTC (2 hours ago):

TAF LIRF 190500Z 1906/2012 03010KT CAVOK BECMG 1908/1911 29012KT BECMG 1919/1921 04010KT